Time;durP1;ratioP1;P1;durP2;ratioP2;P2;SDS_P1;SDS_P2;PMS_P1;PMS_P2;Temp;Humidity;BMP_temperature;BMP_pressure;BME280_temperature;BME280_humidity;BME280_pressure;Samples;Min_cycle;Max_cycle;Signal;HPM_P1;HPM_P2
2023/11/28 00:00:15;;;;;;;4.60;3.78;;;;;;;-0.27;100.00;99264.56;4980795;28;20195;-66
2023/11/28 00:02:44;;;;;;;7.05;4.63;;;;;;;-0.38;100.00;99259.63;4975528;28;20316;-65
2023/11/28 00:05:13;;;;;;;5.50;4.63;;;;;;;-0.38;100.00;99262.28;4975277;28;20215;-65
2023/11/28 00:07:42;;;;;;;1.02;0.75;;;;;;;-0.38;100.00;99251.66;4976088;28;20624;-65
2023/11/28 00:10:11;;;;;;;4.70;3.38;;;;;;;-0.35;100.00;99256.66;4978001;28;20195;-65
2023/11/28 00:12:40;;;;;;;3.33;1.90;;;;;;;-0.37;100.00;99253.31;4974755;28;20223;-65
2023/11/28 00:15:10;;;;;;;7.93;4.93;;;;;;;-0.33;100.00;99251.97;4988587;28;20770;-65
2023/11/28 00:17:40;;;;;;;2.13;1.88;;;;;;;-0.35;100.00;99248.66;4975112;28;20282;-64
2023/11/28 00:20:10;;;;;;;4.55;3.25;;;;;;;-0.39;100.00;99250.03;4974604;28;20226;-65
2023/11/28 00:22:40;;;;;;;8.40;2.22;;;;;;;-0.38;100.00;99252.50;4975822;28;20195;-65
2023/11/28 00:25:09;;;;;;;1.77;1.65;;;;;;;-0.39;100.00;99252.69;4978832;28;20689;-65
2023/11/28 00:27:38;;;;;;;3.17;2.88;;;;;;;-0.40;100.00;99243.88;4980461;28;20646;-62
2023/11/28 00:30:08;;;;;;;3.88;1.80;;;;;;;-0.44;100.00;99238.06;4974644;28;20271;-64
2023/11/28 00:32:37;;;;;;;5.43;4.95;;;;;;;-0.37;100.00;99242.69;4975551;28;20191;-64
2023/11/28 00:35:08;;;;;;;6.93;4.20;;;;;;;-0.37;100.00;99237.38;4976372;28;20220;-65
2023/11/28 00:37:38;;;;;;;3.65;3.35;;;;;;;-0.39;100.00;99236.72;4973931;28;20198;-65
2023/11/28 00:40:11;;;;;;;5.40;2.53;;;;;;;-0.40;100.00;99237.72;4982568;28;20302;-66
2023/11/28 00:42:41;;;;;;;4.60;4.30;;;;;;;-0.39;100.00;99237.56;4983275;28;20194;-65
2023/11/28 00:45:12;;;;;;;3.47;3.28;;;;;;;-0.44;100.00;99238.06;4981639;28;20223;-65
2023/11/28 00:47:43;;;;;;;1.90;1.80;;;;;;;-0.45;100.00;99236.44;4978153;28;20207;-66
2023/11/28 00:50:14;;;;;;;3.45;2.58;;;;;;;-0.40;100.00;99245.69;4981412;28;20294;-65
2023/11/28 00:52:43;;;;;;;3.65;2.58;;;;;;;-0.37;100.00;99245.34;4983645;28;20210;-64
2023/11/28 00:55:12;;;;;;;5.45;1.92;;;;;;;-0.47;100.00;99243.72;4966742;28;20215;-65
2023/11/28 00:57:44;;;;;;;4.03;2.72;;;;;;;-0.47;100.00;99249.03;4973551;28;20659;-64
2023/11/28 01:00:14;;;;;;;4.13;3.80;;;;;;;-0.48;100.00;99239.41;4974631;28;20203;-65
2023/11/28 01:02:43;;;;;;;8.77;3.65;;;;;;;-0.47;100.00;99251.69;4974007;28;20195;-65
2023/11/28 01:05:14;;;;;;;2.72;2.53;;;;;;;-0.47;100.00;99249.03;4975024;28;20219;-65
2023/11/28 01:07:43;;;;;;;5.20;4.60;;;;;;;-0.43;100.00;99245.03;4973610;28;20230;-65
2023/11/28 01:10:12;;;;;;;6.85;4.25;;;;;;;-0.47;100.00;99240.22;4975309;28;20732;-66
2023/11/28 01:12:41;;;;;;;5.45;3.58;;;;;;;-0.53;100.00;99252.38;4972974;28;20216;-65
2023/11/28 01:15:11;;;;;;;1.52;1.42;;;;;;;-0.50;100.00;99248.56;4975260;28;20203;-64
2023/11/28 01:17:39;;;;;;;6.18;3.50;;;;;;;-0.46;100.00;99256.03;4974173;28;20674;-66
2023/11/28 01:20:10;;;;;;;4.57;3.03;;;;;;;-0.46;100.00;99240.06;4972560;28;20207;-66
2023/11/28 01:22:40;;;;;;;7.80;4.90;;;;;;;-0.46;100.00;99245.38;4974148;28;20210;-66
2023/11/28 01:25:09;;;;;;;4.35;2.38;;;;;;;-0.50;100.00;99238.78;4971739;28;20229;-65
2023/11/28 01:27:38;;;;;;;4.00;3.42;;;;;;;-0.41;100.00;99244.03;4973809;28;20246;-65
2023/11/28 01:30:08;;;;;;;4.07;3.50;;;;;;;-0.46;100.00;99240.06;4973932;28;20278;-66
2023/11/28 01:32:37;;;;;;;4.60;4.15;;;;;;;-0.41;100.00;99238.72;4977420;28;20200;-65
2023/11/28 01:35:08;;;;;;;6.50;4.63;;;;;;;-0.52;100.00;99235.44;4966648;28;20318;-65
2023/11/28 01:37:38;;;;;;;11.93;5.47;;;;;;;-0.52;100.00;99240.75;4974780;28;20199;-63
2023/11/28 01:40:09;;;;;;;7.40;4.05;;;;;;;-0.48;100.00;99231.44;4974114;28;20266;-64
2023/11/28 01:42:38;;;;;;;10.77;3.85;;;;;;;-0.51;100.00;99234.44;4976258;28;20195;-64
2023/11/28 01:45:09;;;;;;;6.43;3.45;;;;;;;-0.53;100.00;99233.78;4980464;28;20222;-64
2023/11/28 01:47:38;;;;;;;6.80;2.38;;;;;;;-0.61;100.00;99232.97;4977201;28;20714;-65
2023/11/28 01:50:08;;;;;;;4.75;2.45;;;;;;;-0.60;100.00;99238.13;4978299;28;20188;-65
2023/11/28 01:52:38;;;;;;;3.05;2.45;;;;;;;-0.58;100.00;99235.31;4969238;28;20235;-65
2023/11/28 01:55:09;;;;;;;2.50;2.38;;;;;;;-0.66;100.00;99232.66;4973943;28;20724;-66
2023/11/28 01:57:38;;;;;;;3.15;2.58;;;;;;;-0.63;100.00;99232.34;4977130;28;20207;-63
2023/11/28 02:00:09;;;;;;;7.38;3.67;;;;;;;-0.62;100.00;99224.19;4983934;28;20607;-66
2023/11/28 02:02:43;;;;;;;3.22;2.80;;;;;;;-0.66;100.00;99222.88;4989096;28;20190;-64
2023/11/28 02:05:13;;;;;;;11.50;3.28;;;;;;;-0.71;100.00;99235.84;4987145;28;20215;-64
2023/11/28 02:07:50;;;;;;;8.30;2.63;;;;;;;-0.73;100.00;99221.91;4980470;28;20552;-64
2023/11/28 02:10:18;;;;;;;3.58;2.50;;;;;;;-0.79;100.00;99227.91;4983258;28;20194;-65
2023/11/28 02:12:47;;;;;;;3.63;3.38;;;;;;;-0.78;100.00;99228.72;4978678;28;20195;-65
2023/11/28 02:15:16;;;;;;;2.92;2.67;;;;;;;-0.80;100.00;99228.88;4987936;28;20222;-65
2023/11/28 02:17:45;;;;;;;1.63;1.52;;;;;;;-0.77;100.00;99225.88;4986958;28;20197;-64
2023/11/28 02:20:14;;;;;;;6.43;3.72;;;;;;;-0.73;100.00;99226.41;4984853;28;20215;-64
2023/11/28 02:22:43;;;;;;;1.83;1.73;;;;;;;-0.69;100.00;99223.22;4982606;28;20191;-64
2023/11/28 02:25:14;;;;;;;1.95;1.25;;;;;;;-0.78;100.00;99228.72;4986795;28;20631;-65
2023/11/28 02:27:44;;;;;;;4.40;2.35;;;;;;;-0.78;100.00;99229.56;4982042;28;20686;-65
2023/11/28 02:30:13;;;;;;;3.78;1.85;;;;;;;-0.82;100.00;99227.41;4997287;28;20649;-65
2023/11/28 02:32:42;;;;;;;5.90;2.50;;;;;;;-0.86;100.00;99221.59;4984803;28;20734;-64
2023/11/28 02:35:11;;;;;;;3.45;3.15;;;;;;;-0.83;100.00;99231.91;4988634;28;20705;-64
2023/11/28 02:37:51;;;;;;;3.40;2.38;;;;;;;-0.87;100.00;99219.94;4973708;28;20214;-65
2023/11/28 02:40:20;;;;;;;2.75;2.65;;;;;;;-0.89;100.00;99221.94;4984427;28;20211;-63
2023/11/28 02:42:50;;;;;;;4.25;3.20;;;;;;;-0.86;100.00;99224.25;4985960;28;20661;-64
2023/11/28 02:45:19;;;;;;;5.63;4.38;;;;;;;-0.94;100.00;99226.94;4983828;28;20713;-64
2023/11/28 02:47:48;;;;;;;5.45;2.33;;;;;;;-0.95;100.00;99228.75;4976408;28;20302;-63
2023/11/28 02:50:17;;;;;;;7.45;3.53;;;;;;;-0.93;100.00;99231.25;4978735;28;20202;-63
2023/11/28 02:52:46;;;;;;;4.53;2.20;;;;;;;-1.05;100.00;99220.16;4990934;28;20716;-64
2023/11/28 02:55:15;;;;;;;8.10;3.65;;;;;;;-1.05;100.00;99221.97;4979781;28;20314;-65
2023/11/28 02:57:46;;;;;;;2.70;1.85;;;;;;;-1.10;100.00;99221.66;4966970;28;20256;-65
2023/11/28 03:00:17;;;;;;;4.10;1.38;;;;;;;-1.10;100.00;99224.31;4964316;28;20200;-65
2023/11/28 03:02:46;;;;;;;2.88;2.58;;;;;;;-1.07;100.00;99210.72;4980593;28;20205;-65
2023/11/28 03:05:15;;;;;;;2.45;1.88;;;;;;;-1.18;100.00;99205.75;4977144;28;20282;-65
2023/11/28 03:07:44;;;;;;;1.10;0.82;;;;;;;-1.20;100.00;99208.56;4990318;28;20199;-64
2023/11/28 03:10:13;;;;;;;1.40;1.30;;;;;;;-1.13;100.00;99209.56;4980600;28;20533;-66
2023/11/28 03:12:42;;;;;;;3.88;3.67;;;;;;;-1.11;100.00;99209.38;4975862;28;20250;-65
2023/11/28 03:15:12;;;;;;;2.83;1.75;;;;;;;-1.06;100.00;99207.88;4974604;28;20717;-65
2023/11/28 03:17:42;;;;;;;2.92;1.50;;;;;;;-1.11;100.00;99206.72;4975779;28;20307;-66
2023/11/28 03:20:11;;;;;;;6.68;2.78;;;;;;;-1.09;100.00;99200.25;4984003;28;20615;-66
2023/11/28 03:22:40;;;;;;;5.80;3.70;;;;;;;-1.11;100.00;99206.72;4983612;28;20207;-66
2023/11/28 03:25:11;;;;;;;8.43;4.75;;;;;;;-1.11;100.00;99214.66;4975317;28;20222;-66
2023/11/28 03:27:40;;;;;;;3.40;2.20;;;;;;;-1.11;100.00;99206.72;4979284;28;20191;-66
2023/11/28 03:30:11;;;;;;;0.80;0.65;;;;;;;-1.11;100.00;99204.06;4978938;28;20286;-65
2023/11/28 03:32:41;;;;;;;8.00;3.03;;;;;;;-1.12;100.00;99210.38;4977053;28;20571;-64
2023/11/28 03:35:10;;;;;;;1.42;1.33;;;;;;;-1.03;100.00;99204.88;4981898;28;20266;-65
2023/11/28 03:37:39;;;;;;;1.17;1.08;;;;;;;-1.09;100.00;99220.66;4975739;28;20283;-66
2023/11/28 03:40:09;;;;;;;3.28;1.90;;;;;;;-1.05;100.00;99206.03;4975352;28;20211;-65
2023/11/28 03:42:38;;;;;;;5.03;2.80;;;;;;;-1.01;100.00;99215.31;4965998;28;20195;-65
2023/11/28 03:45:09;;;;;;;4.20;2.97;;;;;;;-1.06;100.00;99215.00;4975130;28;20290;-65
2023/11/28 03:47:38;;;;;;;1.20;0.80;;;;;;;-1.11;100.00;99212.84;4975330;28;20194;-65
2023/11/28 03:50:10;;;;;;;3.08;2.00;;;;;;;-1.06;100.00;99210.53;4978428;28;20191;-64
2023/11/28 03:52:40;;;;;;;6.97;2.60;;;;;;;-1.08;100.00;99211.69;4972523;28;20195;-65
2023/11/28 03:55:10;;;;;;;0.90;0.70;;;;;;;-0.96;100.00;99215.66;4975539;28;20237;-65
2023/11/28 03:57:39;;;;;;;2.55;2.28;;;;;;;-0.95;100.00;99209.34;4973719;28;20294;-65
2023/11/28 04:00:10;;;;;;;1.20;0.98;;;;;;;-0.95;100.00;99212.00;4973731;28;20230;-65
2023/11/28 04:02:39;;;;;;;0.90;0.80;;;;;;;-0.94;100.00;99214.50;4982958;28;20234;-65
2023/11/28 04:05:12;;;;;;;1.00;0.77;;;;;;;-0.93;100.00;99210.84;4973777;28;20285;-66
2023/11/28 04:07:41;;;;;;;2.30;2.10;;;;;;;-0.84;99.01;99224.94;4979696;28;20226;-65
2023/11/28 04:10:10;;;;;;;1.48;1.38;;;;;;;-0.87;97.82;99218.09;4977544;28;20552;-66
2023/11/28 04:12:39;;;;;;;1.30;1.20;;;;;;;-0.84;97.40;99216.97;4972865;28;20215;-65
2023/11/28 04:15:08;;;;;;;0.80;0.63;;;;;;;-0.79;97.55;99208.47;4968674;28;20223;-65
2023/11/28 04:17:38;;;;;;;1.45;1.35;;;;;;;-0.86;97.10;99221.59;4966062;28;20207;-66
2023/11/28 04:20:08;;;;;;;2.17;2.05;;;;;;;-0.76;96.09;99214.28;4978288;28;20207;-66
2023/11/28 04:22:39;;;;;;;1.23;1.02;;;;;;;-0.78;96.56;99218.94;5004068;28;20218;-65
2023/11/28 04:25:09;;;;;;;1.00;0.85;;;;;;;-0.77;96.08;99220.56;4976879;28;20276;-65
2023/11/28 04:27:37;;;;;;;1.17;1.08;;;;;;;-0.79;96.17;99227.06;4977619;28;20246;-66
2023/11/28 04:30:08;;;;;;;1.65;0.80;;;;;;;-0.77;96.26;99220.56;4972728;28;20196;-66
2023/11/28 04:32:37;;;;;;;2.00;1.48;;;;;;;-0.83;96.08;99221.28;4976616;28;20187;-66
2023/11/28 04:35:07;;;;;;;4.18;2.10;;;;;;;-0.83;95.81;99218.63;4978111;28;20226;-66
2023/11/28 04:37:38;;;;;;;2.53;2.03;;;;;;;-0.83;94.86;99226.59;4977547;28;20200;-66
2023/11/28 04:40:08;;;;;;;2.78;2.40;;;;;;;-0.88;94.67;99227.09;4985302;28;20213;-67
2023/11/28 04:42:39;;;;;;;1.10;0.73;;;;;;;-0.90;95.48;99230.91;4972979;28;20222;-66
2023/11/28 04:45:10;;;;;;;1.17;0.93;;;;;;;-0.81;94.97;99219.25;4969355;28;20266;-66
2023/11/28 04:47:38;;;;;;;1.35;0.80;;;;;;;-0.83;93.72;99223.09;4977674;28;20627;-65
2023/11/28 04:50:08;;;;;;;2.88;1.30;;;;;;;-0.85;93.42;99225.09;4979104;28;20205;-66
2023/11/28 04:52:39;;;;;;;4.93;0.95;;;;;;;-0.92;94.54;99223.09;4978161;28;20215;-66
2023/11/28 04:55:08;;;;;;;3.40;1.02;;;;;;;-0.88;94.53;99226.25;4982262;28;20230;-66
2023/11/28 04:57:39;;;;;;;2.85;1.60;;;;;;;-0.83;93.50;99231.91;4972698;28;20229;-65
2023/11/28 05:00:09;;;;;;;2.58;1.65;;;;;;;-0.80;93.48;99225.41;4974244;28;20195;-66
2023/11/28 05:02:39;;;;;;;2.38;0.90;;;;;;;-0.84;93.97;99227.59;4976805;28;20573;-65
2023/11/28 05:05:09;;;;;;;2.85;1.00;;;;;;;-0.84;93.87;99227.59;4977484;28;20230;-66
2023/11/28 05:07:39;;;;;;;0.90;0.70;;;;;;;-0.81;93.26;99229.88;4988288;28;20207;-65
2023/11/28 05:10:09;;;;;;;7.60;3.55;;;;;;;-0.83;93.65;99231.91;4972862;28;20220;-64
2023/11/28 05:12:38;;;;;;;1.05;0.82;;;;;;;-0.87;93.69;99235.88;4972390;28;20200;-65
2023/11/28 05:15:07;;;;;;;1.55;1.45;;;;;;;-0.89;94.06;99243.19;4965910;28;20223;-65
2023/11/28 05:17:36;;;;;;;3.03;2.03;;;;;;;-0.91;93.01;99237.22;4970661;28;20198;-65
2023/11/28 05:20:08;;;;;;;1.40;1.30;;;;;;;-0.94;93.08;99242.88;4976981;28;20194;-65
2023/11/28 05:22:40;;;;;;;5.28;2.08;;;;;;;-0.91;93.61;99246.00;4972733;28;20646;-65
2023/11/28 05:25:10;;;;;;;1.58;1.48;;;;;;;-0.91;93.28;99239.84;4978791;28;20234;-65
2023/11/28 05:27:39;;;;;;;2.17;0.80;;;;;;;-0.88;93.62;99247.50;4975203;28;20230;-65
2023/11/28 05:30:10;;;;;;;2.33;1.60;;;;;;;-0.95;93.25;99250.00;4981248;28;20262;-65
2023/11/28 05:32:39;;;;;;;5.43;1.13;;;;;;;-1.00;92.89;99251.50;4983193;28;20261;-66
2023/11/28 05:35:09;;;;;;;1.88;0.98;;;;;;;-1.00;92.98;99256.81;4976460;28;20269;-66
2023/11/28 05:37:40;;;;;;;1.60;0.80;;;;;;;-0.88;93.26;99250.16;4976613;28;20206;-65
2023/11/28 05:40:10;;;;;;;3.35;2.65;;;;;;;-0.99;92.64;99248.69;4976630;28;20753;-66
2023/11/28 05:42:40;;;;;;;1.52;1.33;;;;;;;-1.04;93.43;99260.81;4976338;28;20215;-66
2023/11/28 05:45:10;;;;;;;3.00;2.80;;;;;;;-1.02;93.74;99261.47;4985622;28;20222;-65
2023/11/28 05:47:39;;;;;;;1.65;1.55;;;;;;;-0.95;94.68;99265.09;4971997;28;20191;-66
2023/11/28 05:50:09;;;;;;;3.60;2.67;;;;;;;-0.93;94.00;99268.44;4976226;28;20697;-66
2023/11/28 05:52:39;;;;;;;3.05;1.75;;;;;;;-0.97;93.96;99272.41;4980426;28;20187;-66
2023/11/28 05:55:09;;;;;;;1.70;1.52;;;;;;;-0.94;94.01;99264.09;4974093;28;20215;-65
2023/11/28 05:57:38;;;;;;;3.70;1.90;;;;;;;-0.88;93.38;99271.41;4986386;28;20198;-65
2023/11/28 06:00:08;;;;;;;3.53;1.17;;;;;;;-0.89;93.75;99280.38;4978002;28;20206;-65
2023/11/28 06:02:45;;;;;;;2.35;2.08;;;;;;;-0.92;93.68;99283.38;4977145;28;20577;-64
2023/11/28 06:05:15;;;;;;;1.35;1.25;;;;;;;-0.93;93.86;99289.66;4987025;28;20230;-65
2023/11/28 06:07:46;;;;;;;1.88;1.77;;;;;;;-0.96;93.65;99284.69;4975674;28;20572;-65
2023/11/28 06:10:15;;;;;;;4.50;3.03;;;;;;;-0.93;93.42;99292.31;4980739;28;20314;-65
2023/11/28 06:12:44;;;;;;;8.98;2.15;;;;;;;-0.95;94.70;99291.66;4987232;28;20183;-65
2023/11/28 06:15:13;;;;;;;7.80;2.50;;;;;;;-0.97;94.65;99296.31;4976965;28;20717;-65
2023/11/28 06:17:42;;;;;;;1.38;1.27;;;;;;;-1.02;95.13;99288.84;4978468;28;20200;-66
2023/11/28 06:20:15;;;;;;;1.38;1.05;;;;;;;-0.98;94.52;99305.28;4976057;28;20206;-65
2023/11/28 06:22:46;;;;;;;5.93;2.08;;;;;;;-1.02;95.92;99293.34;4985452;28;20294;-65
2023/11/28 06:25:15;;;;;;;4.30;2.35;;;;;;;-1.00;95.62;99304.59;4977108;28;20227;-66
2023/11/28 06:27:44;;;;;;;7.30;2.53;;;;;;;-1.07;96.87;99314.25;4982953;28;20195;-65
2023/11/28 06:30:14;;;;;;;5.20;2.00;;;;;;;-1.16;96.59;99312.59;4986592;28;20195;-66
2023/11/28 06:32:42;;;;;;;0.85;0.73;;;;;;;-1.14;97.43;99318.53;4975217;28;20214;-66
2023/11/28 06:35:12;;;;;;;3.22;1.85;;;;;;;-1.17;97.70;99321.53;4974572;28;20254;-66
2023/11/28 06:37:41;;;;;;;6.10;2.50;;;;;;;-1.12;97.82;99316.56;4982311;28;20557;-66
2023/11/28 06:40:14;;;;;;;2.63;1.52;;;;;;;-1.16;97.90;99325.84;4977129;28;20218;-66
2023/11/28 06:42:43;;;;;;;6.75;2.95;;;;;;;-1.19;97.90;99331.47;4974229;28;20203;-66
2023/11/28 06:45:12;;;;;;;3.83;2.28;;;;;;;-1.24;98.75;99324.00;4976583;28;20642;-65
2023/11/28 06:47:41;;;;;;;4.13;1.75;;;;;;;-1.27;98.52;99328.81;4976996;28;20196;-65
2023/11/28 06:50:11;;;;;;;7.55;2.58;;;;;;;-1.27;99.32;99336.78;4977162;28;20203;-66
2023/11/28 06:52:40;;;;;;;10.23;3.28;;;;;;;-1.27;99.51;99339.44;4971971;28;20589;-66
2023/11/28 06:55:10;;;;;;;5.18;2.67;;;;;;;-1.25;99.23;99340.91;4980229;28;20346;-66
2023/11/28 06:57:39;;;;;;;4.40;1.80;;;;;;;-1.26;99.61;99338.44;4972166;28;20242;-65
2023/11/28 07:00:09;;;;;;;3.25;2.47;;;;;;;-1.22;99.83;99332.66;4977087;28;20187;-66
2023/11/28 07:02:37;;;;;;;3.00;2.00;;;;;;;-1.31;99.96;99342.41;4977279;28;20584;-66
2023/11/28 07:05:08;;;;;;;3.45;1.83;;;;;;;-1.25;100.00;99340.91;4978446;28;20219;-69
2023/11/28 07:07:38;;;;;;;4.20;2.35;;;;;;;-1.17;99.80;99350.72;4979249;28;20206;-66
2023/11/28 07:10:08;;;;;;;4.30;2.47;;;;;;;-1.20;99.96;99356.34;4978214;28;20188;-66
2023/11/28 07:12:38;;;;;;;4.20;1.77;;;;;;;-1.27;99.75;99353.53;4979317;28;20187;-65
2023/11/28 07:15:09;;;;;;;7.13;2.97;;;;;;;-1.19;99.93;99358.00;4978213;28;20215;-65
2023/11/28 07:18:20;;;;;;;5.72;3.25;;;;;;;-1.18;100.00;99362.34;4987236;28;20195;-66
2023/11/28 07:20:49;;;;;;;8.68;4.22;;;;;;;-1.18;100.00;99357.88;4973704;28;20195;-66
2023/11/28 07:23:18;;;;;;;10.38;4.53;;;;;;;-1.12;100.00;99359.03;4977185;28;20714;-64
2023/11/28 07:25:48;;;;;;;6.60;5.82;;;;;;;-1.07;100.00;99364.69;4970736;28;20194;-65
2023/11/28 07:28:18;;;;;;;8.75;2.50;;;;;;;-1.02;100.00;99371.16;4975234;28;20273;-65
2023/11/28 07:30:47;;;;;;;11.57;2.35;;;;;;;-1.06;100.00;99374.28;4976054;28;20223;-66
2023/11/28 07:33:16;;;;;;;7.40;5.63;;;;;;;-1.04;100.00;99374.97;4975485;28;20207;-65
2023/11/28 07:35:45;;;;;;;6.90;3.00;;;;;;;-1.02;100.00;99379.13;4979915;28;20192;-66
2023/11/28 07:38:13;;;;;;;4.43;2.00;;;;;;;-0.99;100.00;99381.44;4972756;28;20195;-66
2023/11/28 07:40:43;;;;;;;9.43;5.78;;;;;;;-1.05;100.00;99386.56;4980632;28;20278;-65
2023/11/28 07:43:12;;;;;;;10.48;4.30;;;;;;;-1.02;100.00;99388.91;4979814;28;20212;-65
2023/11/28 07:45:42;;;;;;;4.60;3.17;;;;;;;-1.03;100.00;99384.59;4975128;28;20211;-65
2023/11/28 07:48:12;;;;;;;4.93;3.60;;;;;;;-1.14;100.00;99398.16;4981797;28;20199;-65
2023/11/28 07:50:40;;;;;;;17.27;5.15;;;;;;;-1.15;100.00;99391.19;4975747;28;20271;-66
2023/11/28 07:53:09;;;;;;;2.90;1.80;;;;;;;-1.10;100.00;99399.50;4975187;28;20188;-65
2023/11/28 07:55:38;;;;;;;3.60;3.30;;;;;;;-1.15;100.00;99401.81;4977267;28;20611;-66
2023/11/28 07:58:07;;;;;;;6.55;5.20;;;;;;;-1.20;100.00;99402.31;4974886;28;20203;-66
2023/11/28 08:00:39;;;;;;;4.80;4.38;;;;;;;-1.15;100.00;99410.59;4978765;28;20242;-66
2023/11/28 08:03:10;;;;;;;8.93;5.20;;;;;;;-0.99;100.00;99417.78;4978866;28;20232;-65
2023/11/28 08:05:39;;;;;;;6.43;3.63;;;;;;;-0.92;100.00;99414.28;4980824;28;20211;-67
2023/11/28 08:08:07;;;;;;;6.75;5.15;;;;;;;-0.95;100.00;99413.78;4975316;28;20227;-66
2023/11/28 08:10:36;;;;;;;5.40;3.53;;;;;;;-0.87;100.00;99416.44;4977032;28;20218;-65
2023/11/28 08:13:05;;;;;;;5.43;4.43;;;;;;;-0.94;100.00;99424.25;4978665;28;20194;-65
2023/11/28 08:15:34;;;;;;;14.18;6.65;;;;;;;-0.99;100.00;99421.25;4975229;28;20630;-65
2023/11/28 08:18:03;;;;;;;7.72;5.70;;;;;;;-1.02;100.00;99418.13;4975413;28;20203;-64
2023/11/28 08:20:33;;;;;;;16.90;9.45;;;;;;;-0.83;100.00;99422.28;4974560;28;20195;-65
2023/11/28 08:23:02;;;;;;;9.25;4.78;;;;;;;-0.92;100.00;99432.06;4975243;28;20213;-64
2023/11/28 08:25:31;;;;;;;15.77;3.38;;;;;;;-0.90;100.00;99438.03;4981313;28;20223;-65
2023/11/28 08:28:00;;;;;;;3.47;3.17;;;;;;;-0.85;100.00;99433.06;4974989;28;20191;-66
2023/11/28 08:30:29;;;;;;;1.85;1.75;;;;;;;-0.88;100.00;99430.75;4975560;28;20211;-65
2023/11/28 08:32:58;;;;;;;9.93;5.05;;;;;;;-0.84;100.00;99428.56;4981302;28;20242;-66
2023/11/28 08:35:27;;;;;;;6.93;4.15;;;;;;;-0.81;100.00;99431.72;4972144;28;20219;-66
2023/11/28 08:37:57;;;;;;;8.13;6.78;;;;;;;-0.74;100.00;99435.41;4973375;28;20206;-66
2023/11/28 08:40:26;;;;;;;5.18;3.55;;;;;;;-0.78;100.00;99439.38;4973911;28;20250;-66
2023/11/28 08:42:55;;;;;;;7.53;4.28;;;;;;;-0.74;100.00;99437.22;4980722;28;20211;-65
2023/11/28 08:45:24;;;;;;;9.93;3.25;;;;;;;-0.67;100.00;99439.03;4972903;28;20740;-63
2023/11/28 08:47:52;;;;;;;3.42;2.53;;;;;;;-0.71;99.68;99450.16;4981614;28;20203;-64
2023/11/28 08:50:21;;;;;;;11.35;3.55;;;;;;;-0.70;100.00;99443.84;4973910;28;20219;-65
2023/11/28 08:52:50;;;;;;;10.77;6.35;;;;;;;-0.63;100.00;99448.31;4976763;28;20678;-65
2023/11/28 08:55:20;;;;;;;11.05;6.53;;;;;;;-0.50;99.47;99450.50;4974362;28;20223;-65
2023/11/28 08:57:49;;;;;;;14.63;5.53;;;;;;;-0.59;98.97;99452.34;4973003;28;20617;-65
2023/11/28 09:00:18;;;;;;;4.72;2.50;;;;;;;-0.55;99.32;99464.28;4980130;28;20196;-65
2023/11/28 09:02:47;;;;;;;7.78;2.63;;;;;;;-0.78;99.57;99463.28;4971159;28;20230;-66
2023/11/28 09:05:16;;;;;;;5.15;4.03;;;;;;;-0.79;100.00;99461.63;4974333;28;20215;-65
2023/11/28 09:07:45;;;;;;;5.18;3.50;;;;;;;-0.71;99.97;99469.59;4977692;28;20217;-65
2023/11/28 09:10:15;;;;;;;5.60;5.03;;;;;;;-0.62;99.42;99467.75;4973969;28;20592;-66
2023/11/28 09:12:47;;;;;;;6.47;3.47;;;;;;;-0.68;98.99;99469.28;4976792;28;20204;-65
2023/11/28 09:15:19;;;;;;;7.28;4.05;;;;;;;-0.66;98.85;99479.72;4973012;28;20219;-64
2023/11/28 09:17:48;;;;;;;3.63;3.33;;;;;;;-0.68;99.28;99479.91;4967147;28;20192;-66
2023/11/28 09:20:17;;;;;;;6.55;4.35;;;;;;;-0.63;99.32;99480.22;4979156;28;20203;-65
2023/11/28 09:22:47;;;;;;;6.22;5.40;;;;;;;-0.51;98.23;99476.25;4966739;28;20191;-66
2023/11/28 09:25:16;;;;;;;8.15;5.07;;;;;;;-0.52;98.85;99477.22;4973257;28;20222;-66
2023/11/28 09:27:46;;;;;;;5.55;4.00;;;;;;;-0.51;97.76;99476.25;4973742;28;20199;-66
2023/11/28 09:30:15;;;;;;;8.57;5.30;;;;;;;-0.64;98.57;99475.91;4973959;28;20195;-65
2023/11/28 09:32:44;;;;;;;4.45;3.13;;;;;;;-0.68;97.90;99484.38;4977249;28;20221;-67
2023/11/28 09:35:13;;;;;;;8.90;4.53;;;;;;;-0.62;98.51;99481.88;4979550;28;20222;-65
2023/11/28 09:37:42;;;;;;;5.78;3.50;;;;;;;-0.64;97.51;99475.91;4975872;28;20195;-65
2023/11/28 09:40:11;;;;;;;12.27;7.70;;;;;;;-0.60;98.19;99471.94;4973241;28;20199;-66
2023/11/28 09:42:42;;;;;;;3.33;2.10;;;;;;;-0.50;97.46;99475.25;4973905;28;20187;-66
2023/11/28 09:45:18;;;;;;;4.65;3.70;;;;;;;-0.43;96.67;99478.06;4970235;28;20799;-66
2023/11/28 09:47:49;;;;;;;8.30;4.68;;;;;;;-0.48;96.05;99491.84;4973470;28;20198;-66
2023/11/28 09:50:24;;;;;;;4.85;3.03;;;;;;;-0.48;96.11;99478.56;4973755;28;20242;-66
2023/11/28 09:52:55;;;;;;;7.22;4.05;;;;;;;-0.40;95.71;99476.91;4973342;28;20669;-66
2023/11/28 09:55:24;;;;;;;3.08;2.85;;;;;;;-0.39;95.73;99483.88;4973682;28;20216;-65
2023/11/28 09:57:57;;;;;;;8.07;5.22;;;;;;;-0.39;94.82;99483.88;4973536;28;20274;-66
2023/11/28 10:00:28;;;;;;;14.85;10.63;;;;;;;-0.52;95.30;99485.19;4973306;28;20274;-65
2023/11/28 10:02:58;;;;;;;4.40;2.47;;;;;;;-0.68;96.14;99485.22;4973522;28;20246;-64
2023/11/28 10:05:27;;;;;;;8.48;5.18;;;;;;;-0.70;95.84;99491.66;4973075;28;20266;-65
2023/11/28 10:07:57;;;;;;;1.50;1.38;;;;;;;-0.72;95.90;99483.84;4974483;28;20203;-65
2023/11/28 10:10:26;;;;;;;12.55;4.03;;;;;;;-0.74;96.20;99480.53;4976184;28;20323;-65
2023/11/28 10:12:55;;;;;;;6.80;2.65;;;;;;;-0.74;96.73;99485.84;4976892;28;20686;-65
2023/11/28 10:15:26;;;;;;;4.07;3.78;;;;;;;-0.74;97.05;99485.84;4976787;28;20215;-65
2023/11/28 10:17:57;;;;;;;2.22;1.48;;;;;;;-0.66;97.14;99480.53;4976948;28;20741;-65
2023/11/28 10:20:27;;;;;;;14.00;4.70;;;;;;;-0.61;96.15;99482.69;4977648;28;20204;-65
2023/11/28 10:23:47;;;;;;;6.13;3.50;;;;;;;-0.45;96.26;99486.22;4975485;28;20195;-66
2023/11/28 10:26:16;;;;;;;6.78;4.28;;;;;;;-0.43;95.53;99488.69;4974714;28;20203;-64
2023/11/28 10:28:49;;;;;;;3.42;2.47;;;;;;;-0.53;95.42;99494.16;4977772;28;20530;-65
2023/11/28 10:31:19;;;;;;;3.33;3.03;;;;;;;-0.52;94.30;99495.84;4977565;28;20191;-65
2023/11/28 10:33:51;;;;;;;5.18;2.42;;;;;;;-0.55;94.88;99495.34;4976767;28;20214;-65
2023/11/28 10:36:22;;;;;;;4.95;3.45;;;;;;;-0.43;95.40;99497.50;4976822;28;20258;-64
2023/11/28 10:38:53;;;;;;;3.38;3.08;;;;;;;-0.43;95.14;99505.47;4976753;28;20678;-66
2023/11/28 10:41:32;;;;;;;6.30;2.92;;;;;;;-0.39;95.03;99506.00;4984453;28;20614;-65
2023/11/28 10:44:00;;;;;;;3.47;1.80;;;;;;;-0.42;94.19;99506.28;4978258;28;20219;-65
2023/11/28 10:46:33;;;;;;;9.95;5.93;;;;;;;-0.19;94.35;99506.44;4974356;28;20195;-66
2023/11/28 10:52:59;;;;;;;6.13;3.10;;;;;;;-0.08;93.01;99520.25;4970998;28;20215;-65
2023/11/28 10:55:29;;;;;;;3.53;3.22;;;;;;;-0.29;93.52;99516.44;4969566;28;20215;-65
2023/11/28 10:58:02;;;;;;;8.05;6.50;;;;;;;-0.24;94.38;99514.94;4980841;28;20249;-64
2023/11/28 11:00:37;;;;;;;6.93;4.68;;;;;;;-0.20;93.89;99516.28;4979778;28;20238;-65
2023/11/28 11:03:09;;;;;;;6.35;4.50;;;;;;;-0.19;93.84;99512.59;4982438;28;20187;-64
2023/11/28 11:05:38;;;;;;;6.15;3.92;;;;;;;-0.18;93.33;99514.28;4977369;28;20302;-65
2023/11/28 11:08:09;;;;;;;5.22;3.63;;;;;;;-0.33;92.56;99515.09;4988701;28;20182;-64
2023/11/28 11:10:38;;;;;;;16.23;5.32;;;;;;;-0.43;93.40;99521.41;4980932;28;20198;-63
2023/11/28 11:13:18;;;;;;;3.92;3.15;;;;;;;-0.48;93.68;99509.59;4991723;28;20599;-65
2023/11/28 11:15:56;;;;;;;3.35;2.15;;;;;;;-0.47;93.27;99521.91;4976920;28;20709;-64
2023/11/28 11:18:34;;;;;;;15.48;11.65;;;;;;;-0.43;94.10;99510.78;4977814;28;20206;-64
2023/11/28 11:21:12;;;;;;;6.78;4.30;;;;;;;-0.38;94.38;99507.63;4980172;28;20195;-64
2023/11/28 11:23:46;;;;;;;7.68;4.75;;;;;;;-0.35;93.87;99523.25;4978287;28;20215;-64
2023/11/28 11:26:15;;;;;;;10.63;3.00;;;;;;;-0.30;94.54;99517.44;4987667;28;20278;-65
2023/11/28 11:28:43;;;;;;;6.05;3.38;;;;;;;-0.38;95.20;99525.41;4984185;28;20199;-62
2023/11/28 11:31:15;;;;;;;4.32;2.55;;;;;;;-0.45;95.28;99522.59;4980648;28;20274;-66
2023/11/28 11:33:44;;;;;;;4.30;2.95;;;;;;;-0.47;94.65;99530.72;4988536;28;20215;-65
2023/11/28 11:36:15;;;;;;;4.93;2.97;;;;;;;-0.43;94.73;99540.00;4989903;28;20198;-66
2023/11/28 11:38:47;;;;;;;5.25;3.25;;;;;;;-0.60;95.21;99535.69;4980101;28;20278;-65
2023/11/28 11:41:17;;;;;;;10.68;2.38;;;;;;;-0.69;95.93;99536.69;4985882;28;20207;-65
2023/11/28 11:44:51;;;;;;;3.88;3.58;;;;;;;-0.72;96.36;99531.66;4995554;28;21449;-66
2023/11/28 11:47:21;;;;;;;2.55;2.22;;;;;;;-0.75;96.51;99537.31;4995240;28;20191;-66